createdAt,value
2019-05-26T00:00:24.098Z,2.85
2019-05-26T00:02:57.512Z,3.10
2019-05-26T00:05:30.918Z,4.15
2019-05-26T00:08:02.643Z,4.45
2019-05-26T00:10:34.381Z,4.00
2019-05-26T00:13:07.749Z,3.35
2019-05-26T00:15:42.606Z,3.90
2019-05-26T00:18:14.301Z,4.25
2019-05-26T00:20:46.435Z,4.12
2019-05-26T00:23:18.149Z,4.42
2019-05-26T00:25:51.090Z,4.55
2019-05-26T00:28:22.832Z,3.87
2019-05-26T00:30:54.906Z,3.85
2019-05-26T00:33:28.362Z,3.95
2019-05-26T00:36:00.158Z,3.85
2019-05-26T00:38:32.138Z,3.15
2019-05-26T00:41:03.856Z,3.42
2019-05-26T00:43:36.090Z,3.10
2019-05-26T00:46:07.845Z,2.70
2019-05-26T00:48:40.625Z,2.80
2019-05-26T00:51:14.043Z,2.50
2019-05-26T00:53:45.869Z,3.22
2019-05-26T00:56:18.773Z,3.87
2019-05-26T00:58:50.545Z,3.08
2019-05-26T01:01:22.279Z,3.10
2019-05-26T01:03:54.006Z,3.17
2019-05-26T01:06:27.427Z,3.42
2019-05-26T01:08:59.171Z,3.30
2019-05-26T01:11:34.087Z,3.35
2019-05-26T01:14:05.930Z,3.12
2019-05-26T01:16:38.141Z,3.05
2019-05-26T01:19:09.907Z,2.52
2019-05-26T01:21:42.080Z,2.90
2019-05-26T01:24:15.482Z,3.22
2019-05-26T01:26:47.537Z,3.10
2019-05-26T01:29:19.369Z,3.20
2019-05-26T01:31:54.206Z,2.77
2019-05-26T01:34:27.609Z,2.70
2019-05-26T01:36:59.812Z,2.67
2019-05-26T01:39:31.594Z,3.37
2019-05-26T01:42:04.967Z,3.20
2019-05-26T01:44:36.853Z,3.33
2019-05-26T01:47:08.610Z,3.12
2019-05-26T01:49:40.323Z,2.98
2019-05-26T01:52:12.136Z,3.45
2019-05-26T01:54:44.064Z,3.17
2019-05-26T01:57:15.824Z,3.00
2019-05-26T01:59:49.205Z,3.20
2019-05-26T02:02:23.780Z,3.20
2019-05-26T02:04:55.593Z,4.03
2019-05-26T02:07:27.396Z,3.83
2019-05-26T02:10:01.204Z,2.80
2019-05-26T02:12:33.337Z,3.00
2019-05-26T02:15:05.826Z,2.70
2019-05-26T02:17:37.548Z,3.22
2019-05-26T02:20:09.837Z,3.42
2019-05-26T02:22:43.271Z,3.50
2019-05-26T02:25:15.070Z,3.60
2019-05-26T02:27:46.793Z,3.42
2019-05-26T02:30:18.991Z,3.10
2019-05-26T02:32:51.058Z,3.50
2019-05-26T02:35:22.855Z,3.00
2019-05-26T02:37:54.686Z,3.22
2019-05-26T02:40:28.066Z,3.60
2019-05-26T02:43:00.948Z,3.60
2019-05-26T02:45:32.741Z,3.87
2019-05-26T02:48:04.446Z,4.60
2019-05-26T02:50:36.245Z,3.50
2019-05-26T02:53:08.037Z,2.98
2019-05-26T02:55:40.000Z,3.25
2019-05-26T02:58:11.873Z,3.52
2019-05-26T03:00:44.747Z,3.20
2019-05-26T03:03:17.123Z,3.30
2019-05-26T03:05:48.879Z,3.30
2019-05-26T03:08:20.739Z,3.52
2019-05-26T03:10:52.555Z,3.67
2019-05-26T03:13:25.955Z,3.45
2019-05-26T03:15:59.576Z,3.62
2019-05-26T03:18:32.052Z,3.50
2019-05-26T03:21:05.013Z,3.67
2019-05-26T03:23:36.735Z,4.00
2019-05-26T03:26:08.497Z,3.50
2019-05-26T03:28:40.447Z,3.87
2019-05-26T03:31:15.008Z,4.53
2019-05-26T03:33:46.861Z,4.35
2019-05-26T03:36:18.640Z,3.30
2019-05-26T03:38:50.435Z,3.67
2019-05-26T03:41:22.587Z,3.60
2019-05-26T03:43:55.812Z,3.75
2019-05-26T03:46:28.489Z,3.87
2019-05-26T03:49:02.380Z,3.92
2019-05-26T03:51:35.724Z,3.92
2019-05-26T03:54:09.642Z,3.30
2019-05-26T03:56:41.437Z,4.28
2019-05-26T03:59:13.231Z,4.00
2019-05-26T04:01:44.947Z,3.83
2019-05-26T04:04:16.705Z,4.45
2019-05-26T04:06:48.831Z,3.55
2019-05-26T04:09:21.100Z,4.45
2019-05-26T04:11:54.452Z,3.85
2019-05-26T04:14:27.933Z,4.08
2019-05-26T04:17:01.000Z,3.87
2019-05-26T04:19:32.721Z,4.40
2019-05-26T04:22:05.868Z,3.52
2019-05-26T04:24:39.242Z,4.30
2019-05-26T04:27:11.013Z,3.40
2019-05-26T04:29:43.191Z,2.87
2019-05-26T04:32:15.074Z,3.45
2019-05-26T04:34:48.564Z,4.05
2019-05-26T04:37:20.382Z,3.80
2019-05-26T04:39:52.136Z,3.45
2019-05-26T04:42:24.589Z,3.90
2019-05-26T04:44:58.125Z,3.67
2019-05-26T04:47:32.470Z,4.00
2019-05-26T04:50:04.289Z,3.92
2019-05-26T04:52:36.159Z,3.40
2019-05-26T04:55:07.967Z,4.42
2019-05-26T04:57:40.026Z,3.37
2019-05-26T05:00:11.771Z,4.42
2019-05-26T05:02:43.495Z,4.12
2019-05-26T05:05:15.513Z,3.45
2019-05-26T05:07:47.406Z,3.58
2019-05-26T05:10:19.181Z,3.83
2019-05-26T05:12:50.913Z,3.65
2019-05-26T05:15:22.678Z,4.60
2019-05-26T05:17:54.471Z,3.40
2019-05-26T05:20:26.182Z,4.03
2019-05-26T05:22:57.974Z,4.12
2019-05-26T05:25:31.324Z,4.12
2019-05-26T05:28:04.671Z,3.92
2019-05-26T05:30:36.589Z,3.92
2019-05-26T05:33:08.388Z,3.95
2019-05-26T05:35:41.393Z,3.87
2019-05-26T05:38:13.451Z,3.83
2019-05-26T05:40:58.766Z,3.70
2019-05-26T05:43:19.275Z,3.87
2019-05-26T05:45:51.063Z,3.87
2019-05-26T05:48:22.904Z,4.20
2019-05-26T05:50:54.609Z,3.92
2019-05-26T05:53:26.402Z,3.77
2019-05-26T05:56:00.434Z,2.75
2019-05-26T05:58:32.259Z,4.00
2019-05-26T06:01:04.033Z,3.75
2019-05-26T06:03:37.396Z,3.85
2019-05-26T06:06:10.845Z,4.08
2019-05-26T06:08:42.959Z,3.60
2019-05-26T06:11:17.428Z,3.58
2019-05-26T06:13:49.194Z,3.35
2019-05-26T06:16:20.989Z,3.02
2019-05-26T06:18:52.683Z,2.98
2019-05-26T06:21:25.154Z,2.92
2019-05-26T06:23:56.925Z,2.80
2019-05-26T06:26:28.702Z,3.37
2019-05-26T06:29:01.222Z,3.08
2019-05-26T06:31:36.139Z,2.70
2019-05-26T06:34:07.909Z,2.55
2019-05-26T06:36:41.235Z,3.00
2019-05-26T06:39:14.916Z,2.92
2019-05-26T06:41:48.877Z,2.85
2019-05-26T06:44:20.628Z,2.30
2019-05-26T06:46:52.933Z,3.00
2019-05-26T06:49:24.646Z,3.22
2019-05-26T06:51:58.110Z,3.00
2019-05-26T06:54:29.837Z,2.58
2019-05-26T06:57:02.313Z,3.08
2019-05-26T06:59:35.221Z,2.77
2019-05-26T07:02:09.899Z,2.95
2019-05-26T07:04:41.647Z,2.83
2019-05-26T07:07:13.718Z,4.28
2019-05-26T07:09:45.613Z,2.70
2019-05-26T07:12:17.351Z,2.90
2019-05-26T07:14:50.691Z,3.27
2019-05-26T07:17:22.579Z,3.50
2019-05-26T07:19:55.449Z,3.83
2019-05-26T07:22:27.259Z,4.00
2019-05-26T07:24:59.363Z,4.08
2019-05-26T07:27:31.109Z,3.80
2019-05-26T07:30:02.883Z,3.27
2019-05-26T07:32:36.335Z,3.47
2019-05-26T07:35:08.326Z,3.60
2019-05-26T07:37:41.689Z,3.45
2019-05-26T07:40:16.350Z,4.03
2019-05-26T07:42:49.155Z,4.05
2019-05-26T07:45:21.057Z,4.42
2019-05-26T07:47:52.814Z,3.33
2019-05-26T07:50:24.567Z,3.00
2019-05-26T07:52:56.290Z,2.90
2019-05-26T07:55:28.028Z,3.22
2019-05-26T07:57:59.814Z,2.72
2019-05-26T08:00:33.205Z,2.77
2019-05-26T08:03:04.976Z,2.67
2019-05-26T08:05:36.661Z,2.62
2019-05-26T08:08:12.974Z,3.67
2019-05-26T08:10:43.963Z,2.70
2019-05-26T08:13:15.741Z,2.83
2019-05-26T08:15:47.482Z,2.05
2019-05-26T08:18:20.492Z,2.02
2019-05-26T08:21:20.654Z,1.90
2019-05-26T08:24:05.679Z,2.20
2019-05-26T08:26:37.796Z,2.15
2019-05-26T08:29:11.197Z,1.72
2019-05-26T08:31:42.932Z,2.15
2019-05-26T08:34:14.651Z,2.27
2019-05-26T08:36:46.373Z,2.15
2019-05-26T08:39:18.081Z,1.80
2019-05-26T08:41:50.317Z,2.00
2019-05-26T08:44:23.919Z,1.92
2019-05-26T08:46:55.656Z,2.27
2019-05-26T08:49:27.411Z,2.22
2019-05-26T08:51:59.219Z,1.90
2019-05-26T08:54:32.567Z,2.35
2019-05-26T08:57:05.769Z,1.82
2019-05-26T08:59:37.506Z,1.90
2019-05-26T09:02:09.216Z,2.70
2019-05-26T09:04:40.974Z,2.37
2019-05-26T09:07:14.323Z,2.17
2019-05-26T09:09:46.110Z,2.50
2019-05-26T09:12:19.432Z,2.15
2019-05-26T09:14:52.086Z,2.15
2019-05-26T09:17:23.886Z,2.30
2019-05-26T09:19:56.309Z,1.90
2019-05-26T09:22:28.000Z,2.40
2019-05-26T09:24:59.726Z,1.98
2019-05-26T09:27:31.616Z,1.92
2019-05-26T09:30:05.280Z,1.80
2019-05-26T09:32:40.028Z,2.15
2019-05-26T09:35:11.774Z,2.35
2019-05-26T09:37:45.380Z,2.05
2019-05-26T09:40:17.588Z,1.90
2019-05-26T09:42:49.382Z,2.15
2019-05-26T09:45:21.244Z,1.80
2019-05-26T09:47:55.938Z,2.27
2019-05-26T09:50:27.872Z,2.00
2019-05-26T09:52:59.655Z,2.12
2019-05-26T09:55:31.539Z,2.15
2019-05-26T09:58:06.480Z,1.90
2019-05-26T10:00:38.967Z,2.05
2019-05-26T10:03:11.205Z,1.90
2019-05-26T10:05:45.936Z,2.20
2019-05-26T10:08:17.753Z,2.10
2019-05-26T10:10:50.426Z,2.20
2019-05-26T10:13:31.357Z,1.92
2019-05-26T10:15:57.255Z,2.62
2019-05-26T10:18:28.968Z,2.27
2019-05-26T10:21:00.736Z,2.55
2019-05-26T10:23:34.073Z,2.58
2019-05-26T10:26:05.798Z,3.37
2019-05-26T10:28:39.291Z,2.20
2019-05-26T10:31:11.069Z,2.62
2019-05-26T10:33:42.751Z,2.52
2019-05-26T10:36:14.679Z,2.60
2019-05-26T10:38:48.110Z,2.60
2019-05-26T10:41:20.579Z,2.60
2019-05-26T10:43:53.709Z,2.67
2019-05-26T10:46:25.438Z,2.47
2019-05-26T10:48:57.240Z,2.37
2019-05-26T10:51:28.963Z,3.05
2019-05-26T10:54:00.698Z,2.62
2019-05-26T10:56:32.767Z,3.10
2019-05-26T10:59:04.536Z,2.65
2019-05-26T11:01:37.953Z,2.75
2019-05-26T11:04:09.725Z,2.65
2019-05-26T11:06:41.489Z,3.05
2019-05-26T11:09:13.406Z,2.75
2019-05-26T11:11:45.205Z,2.80
2019-05-26T11:14:16.940Z,3.02
2019-05-26T11:16:48.642Z,2.80
2019-05-26T11:19:21.427Z,3.27
2019-05-26T11:21:53.531Z,3.72
2019-05-26T11:24:26.920Z,3.17
2019-05-26T11:27:08.357Z,3.02
2019-05-26T11:29:32.127Z,3.20
2019-05-26T11:32:03.847Z,3.22
2019-05-26T11:34:35.629Z,3.27
2019-05-26T11:37:09.034Z,3.40
2019-05-26T11:39:40.720Z,3.50
2019-05-26T11:42:14.025Z,3.80
2019-05-26T11:44:46.247Z,3.90
2019-05-26T11:47:19.290Z,3.75
2019-05-26T11:49:53.012Z,3.12
2019-05-26T11:52:24.690Z,3.70
2019-05-26T11:54:56.422Z,3.22
2019-05-26T11:57:28.151Z,3.20
2019-05-26T11:59:59.883Z,3.70
2019-05-26T12:02:31.628Z,3.77
2019-05-26T12:05:05.505Z,4.30
2019-05-26T12:07:37.202Z,3.30
2019-05-26T12:10:13.914Z,3.85
2019-05-26T12:12:43.944Z,3.58
2019-05-26T12:15:15.660Z,3.52
2019-05-26T12:17:47.440Z,3.15
2019-05-26T12:20:21.710Z,3.02
2019-05-26T12:22:53.445Z,3.02
2019-05-26T12:25:25.143Z,3.75
2019-05-26T12:27:56.959Z,2.50
2019-05-26T12:30:28.705Z,2.40
2019-05-26T12:33:02.050Z,2.90
2019-05-26T12:35:45.460Z,2.95
2019-05-26T12:38:18.166Z,2.45
2019-05-26T12:40:50.835Z,2.72
2019-05-26T12:43:22.529Z,3.25
2019-05-26T12:45:54.302Z,2.05
2019-05-26T12:48:26.080Z,0.98
2019-05-26T12:50:59.408Z,1.00
2019-05-26T12:53:31.486Z,1.00
2019-05-26T12:56:03.218Z,1.30
2019-05-26T12:58:36.606Z,1.40
2019-05-26T13:01:08.318Z,1.00
2019-05-26T13:03:40.073Z,1.00
2019-05-26T13:06:11.782Z,1.12
2019-05-26T13:08:46.339Z,1.17
2019-05-26T13:11:18.091Z,1.00
2019-05-26T13:13:51.444Z,1.40
2019-05-26T13:16:24.828Z,1.47
2019-05-26T13:18:56.575Z,1.65
2019-05-26T13:21:28.319Z,1.30
2019-05-26T13:24:01.984Z,1.37
2019-05-26T13:26:36.122Z,1.50
2019-05-26T13:29:08.196Z,1.12
2019-05-26T13:31:39.998Z,1.67
2019-05-26T13:34:12.956Z,0.90
2019-05-26T13:36:45.805Z,1.20
2019-05-26T13:39:17.599Z,1.35
2019-05-26T13:41:49.584Z,0.95
2019-05-26T13:44:22.666Z,1.00
2019-05-26T13:46:54.428Z,1.02
2019-05-26T13:49:26.195Z,1.27
2019-05-26T13:51:57.905Z,1.50
2019-05-26T13:54:29.626Z,1.82
2019-05-26T13:57:03.658Z,2.30
2019-05-26T13:59:35.392Z,4.10
2019-05-26T14:02:07.846Z,1.62
2019-05-26T14:04:41.237Z,1.82
2019-05-26T14:07:12.950Z,2.27
2019-05-26T14:09:45.063Z,2.40
2019-05-26T14:12:16.824Z,2.83
2019-05-26T14:14:48.541Z,3.20
2019-05-26T14:17:20.315Z,3.10
2019-05-26T14:19:52.041Z,3.10
2019-05-26T14:22:23.746Z,3.35
2019-05-26T14:24:55.477Z,3.25
2019-05-26T14:27:27.316Z,2.80
2019-05-26T14:30:03.523Z,3.20
2019-05-26T14:32:35.237Z,2.85
2019-05-26T14:35:08.789Z,2.17
2019-05-26T14:37:40.672Z,2.17
2019-05-26T14:40:12.454Z,2.25
2019-05-26T14:42:44.297Z,2.52
2019-05-26T14:45:16.081Z,1.98
2019-05-26T14:47:49.505Z,1.55
2019-05-26T14:50:21.525Z,1.90
2019-05-26T14:52:53.254Z,2.02
2019-05-26T14:55:25.997Z,2.35
2019-05-26T14:58:14.186Z,2.35
2019-05-26T15:00:32.096Z,3.08
2019-05-26T15:03:03.860Z,2.30
2019-05-26T15:05:37.257Z,2.80
2019-05-26T15:08:08.962Z,2.17
2019-05-26T15:10:40.720Z,2.37
2019-05-26T15:13:14.082Z,2.50
2019-05-26T15:15:47.177Z,2.02
2019-05-26T15:18:20.376Z,2.33
2019-05-26T15:20:55.904Z,1.92
2019-05-26T15:23:25.885Z,2.27
2019-05-26T15:25:58.080Z,2.15
2019-05-26T15:28:29.873Z,2.50
2019-05-26T15:31:03.265Z,2.30
2019-05-26T15:33:36.536Z,2.08
2019-05-26T15:36:12.449Z,1.90
2019-05-26T15:38:46.336Z,2.17
2019-05-26T15:41:18.145Z,2.20
2019-05-26T15:43:49.865Z,2.85
2019-05-26T15:46:25.434Z,2.62
2019-05-26T15:48:56.012Z,3.95
2019-05-26T15:51:27.782Z,3.08
2019-05-26T15:54:03.498Z,3.60
2019-05-26T15:56:35.805Z,3.70
2019-05-26T15:59:11.517Z,3.30
2019-05-26T16:01:47.923Z,3.60
2019-05-26T16:04:19.679Z,3.60
2019-05-26T16:06:51.463Z,3.55
2019-05-26T16:09:25.008Z,2.80
2019-05-26T16:11:59.703Z,4.17
2019-05-26T16:14:33.136Z,3.22
2019-05-26T16:17:07.904Z,3.58
2019-05-26T16:19:39.995Z,3.80
2019-05-26T16:22:13.482Z,3.58
2019-05-26T16:24:45.305Z,5.45
2019-05-26T16:27:19.610Z,4.00
2019-05-26T16:29:50.603Z,4.78
2019-05-26T16:32:24.702Z,4.03
2019-05-26T16:34:56.529Z,4.72
2019-05-26T16:37:30.012Z,5.33
2019-05-26T16:40:01.809Z,4.05
2019-05-26T16:42:36.303Z,4.22
2019-05-26T16:45:09.725Z,5.10
2019-05-26T16:47:41.636Z,4.45
2019-05-26T16:50:13.480Z,5.03
2019-05-26T16:52:45.250Z,4.35
2019-05-26T16:55:17.106Z,5.08
2019-05-26T16:57:48.971Z,4.87
2019-05-26T17:00:20.839Z,5.10
2019-05-26T17:02:54.269Z,5.05
2019-05-26T17:05:26.539Z,5.75
2019-05-26T17:07:59.491Z,5.20
2019-05-26T17:10:31.643Z,4.25
2019-05-26T17:13:05.646Z,5.33
2019-05-26T17:15:38.160Z,5.10
2019-05-26T17:18:09.994Z,5.03
2019-05-26T17:20:42.578Z,5.12
2019-05-26T17:23:15.695Z,5.37
2019-05-26T17:25:48.964Z,5.30
2019-05-26T17:28:20.978Z,5.00
2019-05-26T17:30:52.865Z,5.17
2019-05-26T17:33:24.786Z,5.00
2019-05-26T17:35:58.354Z,5.50
2019-05-26T17:38:32.922Z,5.78
2019-05-26T17:41:04.932Z,5.35
2019-05-26T17:43:37.280Z,5.53
2019-05-26T17:46:09.617Z,5.35
2019-05-26T17:48:42.617Z,5.20
2019-05-26T17:51:15.832Z,4.85
2019-05-26T17:53:49.808Z,5.20
2019-05-26T17:56:22.598Z,5.33
2019-05-26T17:58:56.029Z,5.83
2019-05-26T18:01:29.386Z,4.97
2019-05-26T18:04:02.402Z,5.85
2019-05-26T18:06:35.141Z,5.80
2019-05-26T18:09:08.537Z,5.08
2019-05-26T18:11:42.089Z,5.70
2019-05-26T18:14:15.857Z,5.60
2019-05-26T18:16:47.621Z,5.62
2019-05-26T18:19:19.362Z,5.47
2019-05-26T18:21:51.135Z,5.50
2019-05-26T18:24:22.931Z,5.53
2019-05-26T18:26:54.687Z,5.17
2019-05-26T18:29:26.471Z,4.35
2019-05-26T18:32:00.431Z,4.90
2019-05-26T18:34:34.919Z,5.40
2019-05-26T18:37:07.122Z,6.47
2019-05-26T18:39:41.885Z,5.45
2019-05-26T18:42:13.605Z,5.33
2019-05-26T18:44:46.420Z,5.08
2019-05-26T18:47:18.183Z,6.15
2019-05-26T18:49:50.428Z,6.42
2019-05-26T18:52:22.198Z,5.12
2019-05-26T18:54:54.112Z,5.78
2019-05-26T18:57:25.902Z,5.25
2019-05-26T18:59:58.939Z,5.30
2019-05-26T19:02:30.980Z,5.72
2019-05-26T19:05:02.756Z,6.60
2019-05-26T19:07:35.995Z,5.72
2019-05-26T19:10:09.826Z,7.03
2019-05-26T19:12:41.888Z,5.80
2019-05-26T19:15:15.262Z,5.75
2019-05-26T19:17:47.256Z,5.95
2019-05-26T19:20:19.057Z,5.95
2019-05-26T19:22:53.399Z,6.65
2019-05-26T19:25:25.367Z,8.38
2019-05-26T19:27:59.702Z,8.15
2019-05-26T19:30:31.436Z,7.95
2019-05-26T19:33:03.154Z,9.25
2019-05-26T19:35:35.135Z,9.20
2019-05-26T19:38:06.845Z,8.53
2019-05-26T19:40:39.368Z,9.43
2019-05-26T19:43:14.453Z,8.98
2019-05-26T19:45:46.237Z,7.72
2019-05-26T19:48:18.399Z,8.15
2019-05-26T19:50:53.219Z,8.13
2019-05-26T19:53:25.255Z,8.88
2019-05-26T19:55:57.087Z,7.53
2019-05-26T19:58:28.874Z,9.40
2019-05-26T23:18:47.328Z,12.30
2019-05-26T23:21:19.367Z,11.97
2019-05-26T23:23:52.187Z,11.85
2019-05-26T23:26:24.100Z,13.53
2019-05-26T23:28:56.606Z,13.05
2019-05-26T23:31:29.226Z,13.45
2019-05-26T23:34:03.272Z,12.40
2019-05-26T23:36:35.577Z,12.75
2019-05-26T23:39:07.813Z,12.43
2019-05-26T23:41:43.134Z,13.72
2019-05-26T23:44:16.041Z,12.65
2019-05-26T23:46:47.881Z,11.70
2019-05-26T23:49:19.603Z,12.25
2019-05-26T23:51:51.618Z,12.18
2019-05-26T23:54:23.336Z,11.93
2019-05-26T23:56:55.119Z,12.25
2019-05-26T23:59:26.879Z,12.75
